Time;durP1;ratioP1;P1;durP2;ratioP2;P2;SDS_P1;SDS_P2;PMS_P1;PMS_P2;Temp;Humidity;BMP_temperature;BMP_pressure;BME280_temperature;BME280_humidity;BME280_pressure;Samples;Min_cycle;Max_cycle;Signal;HPM_P1;HPM_P2
2022/10/19 00:00:27;;;;;;;14.43;3.50;;;;;;;;;;4968869;28;20484;-69
2022/10/19 00:02:53;;;;;;;5.13;2.93;;;;;;;;;;4969714;28;20532;-69
2022/10/19 00:05:19;;;;;;;3.50;3.20;;;;;;;;;;4968979;28;20426;-69
2022/10/19 00:07:45;;;;;;;4.50;2.40;;;;;;;;;;4969381;28;20445;-69
2022/10/19 00:10:11;;;;;;;8.23;2.80;;;;;;;;;;4969835;28;21064;-69
2022/10/19 00:12:37;;;;;;;4.00;3.03;;;;;;;;;;4970153;28;20441;-68
2022/10/19 00:15:04;;;;;;;13.70;2.87;;;;;;;;;;4969550;28;20922;-68
2022/10/19 00:17:30;;;;;;;2.60;2.60;;;;;;;;;;4968874;28;20545;-69
2022/10/19 00:19:56;;;;;;;2.87;2.77;;;;;;;;;;4969806;28;20572;-69
2022/10/19 00:22:22;;;;;;;7.80;3.90;;;;;;;;;;4968776;28;20438;-69
2022/10/19 00:24:48;;;;;;;1.83;1.83;;;;;;;;;;4969441;28;20488;-69
2022/10/19 00:27:14;;;;;;;2.27;2.27;;;;;;;;;;4969716;28;20438;-69
2022/10/19 00:29:40;;;;;;;2.00;1.90;;;;;;;;;;4968879;28;20505;-69
2022/10/19 00:32:06;;;;;;;2.90;2.73;;;;;;;;;;4968761;28;20935;-68
2022/10/19 00:34:32;;;;;;;9.73;2.57;;;;;;;;;;4969417;28;20422;-69
2022/10/19 00:36:58;;;;;;;6.83;2.90;;;;;;;;;;4967572;28;20454;-68
2022/10/19 00:39:24;;;;;;;2.97;2.90;;;;;;;;;;4969546;28;20946;-69
2022/10/19 00:41:50;;;;;;;3.07;2.97;;;;;;;;;;4969755;28;20564;-69
2022/10/19 00:44:16;;;;;;;3.33;3.10;;;;;;;;;;4970062;28;20529;-69
2022/10/19 00:46:43;;;;;;;3.30;3.20;;;;;;;;;;4970703;28;20472;-69
2022/10/19 00:49:12;;;;;;;3.43;3.13;;;;;;;;;;4970299;28;20442;-68
2022/10/19 00:51:40;;;;;;;4.90;4.47;;;;;;;;;;4971396;28;20430;-68
2022/10/19 00:54:07;;;;;;;7.67;6.80;;;;;;;;;;4973212;28;20442;-69
2022/10/19 00:56:33;;;;;;;8.70;7.57;;;;;;;;;;4971384;28;20493;-69
2022/10/19 00:59:01;;;;;;;7.67;6.80;;;;;;;;;;4972171;28;20525;-68
2022/10/19 01:01:28;;;;;;;9.43;7.60;;;;;;;;;;4969995;28;20497;-69
2022/10/19 01:03:54;;;;;;;6.43;5.93;;;;;;;;;;4971422;28;20438;-68
2022/10/19 01:06:20;;;;;;;6.47;5.87;;;;;;;;;;4972412;28;20853;-68
2022/10/19 01:08:46;;;;;;;6.87;6.33;;;;;;;;;;4972499;28;20508;-71
2022/10/19 01:11:15;;;;;;;7.20;6.60;;;;;;;;;;4971837;28;20485;-69
2022/10/19 01:13:55;;;;;;;7.00;6.33;;;;;;;;;;4972153;28;20465;-69
2022/10/19 01:16:28;;;;;;;8.67;7.83;;;;;;;;;;4972824;28;20532;-68
2022/10/19 01:19:00;;;;;;;8.73;7.80;;;;;;;;;;4971476;28;20426;-68
2022/10/19 01:21:30;;;;;;;7.93;7.33;;;;;;;;;;4972337;28;20489;-70
2022/10/19 01:24:08;;;;;;;8.87;6.90;;;;;;;;;;4972804;28;20500;-68
2022/10/19 01:27:06;;;;;;;7.37;6.53;;;;;;;;;;4971044;28;20440;-70
2022/10/19 01:29:43;;;;;;;7.87;7.27;;;;;;;;;;4938224;28;20468;-69
2022/10/19 01:32:11;;;;;;;11.27;7.33;;;;;;;;;;4970096;28;20434;-70
2022/10/19 01:34:43;;;;;;;7.00;6.40;;;;;;;;;;4969807;28;20470;-69
2022/10/19 01:37:31;;;;;;;8.90;8.10;;;;;;;;;;4970567;28;20460;-70
2022/10/19 01:40:03;;;;;;;7.90;7.20;;;;;;;;;;4969556;28;20556;-71
2022/10/19 01:42:29;;;;;;;11.63;7.20;;;;;;;;;;4971663;28;20472;-68
2022/10/19 01:45:00;;;;;;;7.70;7.10;;;;;;;;;;4971436;28;20947;-69
2022/10/19 01:47:30;;;;;;;9.47;8.47;;;;;;;;;;4970562;28;20504;-69
2022/10/19 01:49:58;;;;;;;7.07;6.30;;;;;;;;;;4969960;28;20445;-69
2022/10/19 01:52:26;;;;;;;7.57;7.00;;;;;;;;;;4969315;28;20465;-69
2022/10/19 01:54:53;;;;;;;10.50;6.97;;;;;;;;;;4971326;28;20430;-69
2022/10/19 01:57:22;;;;;;;9.97;9.00;;;;;;;;;;4969956;28;20441;-70
2022/10/19 01:59:48;;;;;;;10.53;8.80;;;;;;;;;;4970698;28;20438;-71
2022/10/19 02:02:15;;;;;;;10.53;7.63;;;;;;;;;;4970998;28;20532;-68
2022/10/19 02:04:41;;;;;;;9.30;8.50;;;;;;;;;;4971165;28;20473;-69
2022/10/19 02:07:08;;;;;;;8.97;8.20;;;;;;;;;;4971402;28;20439;-69
2022/10/19 02:09:35;;;;;;;9.83;7.87;;;;;;;;;;4969722;28;20489;-68
2022/10/19 02:12:02;;;;;;;10.10;8.80;;;;;;;;;;4971456;28;20441;-69
2022/10/19 02:14:36;;;;;;;13.90;8.97;;;;;;;;;;4971376;28;20436;-71
2022/10/19 02:17:04;;;;;;;11.53;10.07;;;;;;;;;;4971370;28;20512;-69
2022/10/19 02:19:31;;;;;;;32.37;10.30;;;;;;;;;;4971144;28;20861;-71
2022/10/19 02:21:57;;;;;;;17.00;9.47;;;;;;;;;;4971790;28;20580;-68
2022/10/19 02:24:23;;;;;;;19.50;10.67;;;;;;;;;;4970273;28;20434;-69
2022/10/19 02:26:49;;;;;;;22.00;11.20;;;;;;;;;;4970709;28;20450;-70
2022/10/19 02:29:15;;;;;;;31.10;11.13;;;;;;;;;;4970391;28;20445;-70
2022/10/19 02:31:41;;;;;;;19.70;10.10;;;;;;;;;;4971982;28;20942;-68
2022/10/19 02:34:08;;;;;;;20.20;9.70;;;;;;;;;;4971996;28;20422;-69
2022/10/19 02:36:34;;;;;;;24.67;11.20;;;;;;;;;;4970943;28;21307;-70
2022/10/19 02:39:00;;;;;;;22.60;9.70;;;;;;;;;;4969961;28;20438;-69
2022/10/19 02:41:26;;;;;;;16.47;9.80;;;;;;;;;;4971499;28;20568;-69
2022/10/19 02:44:04;;;;;;;19.30;10.17;;;;;;;;;;4971021;28;20503;-69
2022/10/19 02:46:40;;;;;;;24.80;10.70;;;;;;;;;;4971314;28;20488;-69
2022/10/19 02:49:06;;;;;;;19.50;11.47;;;;;;;;;;4971002;28;20429;-69
2022/10/19 02:51:34;;;;;;;34.50;11.20;;;;;;;;;;4969711;28;20427;-69
2022/10/19 02:54:00;;;;;;;14.30;8.57;;;;;;;;;;4971595;28;20422;-69
2022/10/19 02:56:26;;;;;;;15.13;8.13;;;;;;;;;;4970062;28;20458;-69
2022/10/19 02:58:52;;;;;;;14.73;8.77;;;;;;;;;;4970796;28;20520;-68
2022/10/19 03:01:18;;;;;;;10.73;8.60;;;;;;;;;;4970175;28;20824;-69
2022/10/19 03:03:44;;;;;;;23.47;12.23;;;;;;;;;;4971439;28;20432;-68
2022/10/19 03:06:10;;;;;;;14.53;10.00;;;;;;;;;;4971034;28;20516;-69
2022/10/19 03:08:36;;;;;;;11.00;9.07;;;;;;;;;;4970836;28;20501;-69
2022/10/19 03:11:02;;;;;;;14.37;9.50;;;;;;;;;;4970907;28;20998;-68
2022/10/19 03:13:28;;;;;;;16.00;8.00;;;;;;;;;;4969931;28;21104;-69
2022/10/19 03:15:54;;;;;;;14.50;10.00;;;;;;;;;;4970376;28;21221;-69
2022/10/19 03:18:20;;;;;;;9.63;8.80;;;;;;;;;;4969992;28;20434;-69
2022/10/19 03:20:46;;;;;;;14.57;8.03;;;;;;;;;;4970271;28;20980;-69
2022/10/19 03:23:12;;;;;;;8.10;7.40;;;;;;;;;;4971105;28;20512;-69
2022/10/19 03:25:37;;;;;;;9.87;8.87;;;;;;;;;;4969709;28;20442;-69
2022/10/19 03:28:03;;;;;;;9.63;8.63;;;;;;;;;;4970035;28;20445;-69
2022/10/19 03:30:29;;;;;;;7.90;7.00;;;;;;;;;;4970552;28;20452;-69
2022/10/19 03:32:55;;;;;;;11.90;9.23;;;;;;;;;;4969750;28;20433;-68
2022/10/19 03:35:21;;;;;;;9.63;8.23;;;;;;;;;;4969043;28;20442;-69
2022/10/19 03:37:47;;;;;;;15.00;9.23;;;;;;;;;;4970709;28;21034;-68
2022/10/19 03:40:13;;;;;;;13.93;8.60;;;;;;;;;;4969875;28;20543;-69
2022/10/19 03:42:39;;;;;;;9.43;8.53;;;;;;;;;;4969087;28;20505;-69
2022/10/19 03:45:05;;;;;;;10.77;9.67;;;;;;;;;;4970771;28;20525;-69
2022/10/19 03:47:31;;;;;;;11.93;8.30;;;;;;;;;;4970593;28;20418;-69
2022/10/19 03:49:57;;;;;;;9.87;8.00;;;;;;;;;;4968590;28;21021;-68
2022/10/19 03:52:23;;;;;;;10.27;7.97;;;;;;;;;;4970971;28;20465;-69
2022/10/19 03:54:50;;;;;;;13.03;7.83;;;;;;;;;;4970955;28;20915;-68
2022/10/19 03:57:16;;;;;;;9.40;8.50;;;;;;;;;;4968977;28;20449;-68
2022/10/19 03:59:42;;;;;;;17.13;7.77;;;;;;;;;;4969946;28;20433;-68
2022/10/19 04:02:08;;;;;;;13.30;7.87;;;;;;;;;;4970461;28;20449;-68
2022/10/19 04:04:34;;;;;;;9.40;8.10;;;;;;;;;;4970632;28;20422;-69
2022/10/19 04:07:00;;;;;;;13.03;8.37;;;;;;;;;;4970032;28;21227;-68
2022/10/19 04:09:25;;;;;;;15.80;8.80;;;;;;;;;;4969326;28;20532;-69
2022/10/19 04:11:52;;;;;;;13.30;9.20;;;;;;;;;;4970212;28;20508;-67
2022/10/19 04:14:19;;;;;;;9.20;8.50;;;;;;;;;;4970110;28;20481;-68
2022/10/19 04:16:44;;;;;;;9.50;8.10;;;;;;;;;;4969762;28;20915;-71
2022/10/19 04:19:13;;;;;;;9.33;8.50;;;;;;;;;;4969760;28;20499;-69
2022/10/19 04:21:40;;;;;;;8.73;7.97;;;;;;;;;;4974055;28;20492;-68
2022/10/19 04:24:13;;;;;;;8.90;8.10;;;;;;;;;;4973943;28;20484;-70
2022/10/19 04:26:44;;;;;;;9.47;8.07;;;;;;;;;;4974177;28;20974;-69
2022/10/19 04:29:10;;;;;;;9.87;9.00;;;;;;;;;;4971475;28;20429;-68
2022/10/19 04:31:36;;;;;;;11.23;7.63;;;;;;;;;;4974109;28;20495;-69
2022/10/19 04:34:03;;;;;;;9.93;8.07;;;;;;;;;;4973183;28;20444;-68
2022/10/19 04:36:29;;;;;;;9.87;7.77;;;;;;;;;;4972847;28;20433;-69
2022/10/19 04:38:54;;;;;;;15.40;9.03;;;;;;;;;;4973012;28;20448;-69
2022/10/19 04:41:21;;;;;;;11.33;7.20;;;;;;;;;;4973138;28;20473;-68
2022/10/19 04:43:47;;;;;;;12.70;8.27;;;;;;;;;;4973196;28;20445;-71
2022/10/19 04:46:14;;;;;;;15.40;7.03;;;;;;;;;;4972490;28;20430;-70
2022/10/19 04:48:40;;;;;;;12.93;8.40;;;;;;;;;;4972613;28;20438;-68
2022/10/19 04:51:07;;;;;;;11.30;7.77;;;;;;;;;;4972439;28;20437;-69
2022/10/19 04:53:33;;;;;;;8.67;7.77;;;;;;;;;;4973626;28;20448;-71
2022/10/19 04:56:00;;;;;;;14.07;8.90;;;;;;;;;;4972990;28;20436;-69
2022/10/19 04:58:26;;;;;;;14.23;9.40;;;;;;;;;;4972230;28;20485;-69
2022/10/19 05:00:52;;;;;;;15.40;8.10;;;;;;;;;;4972821;28;20483;-70
2022/10/19 05:03:18;;;;;;;11.00;7.97;;;;;;;;;;4972171;28;20764;-69
2022/10/19 05:05:44;;;;;;;15.57;8.20;;;;;;;;;;4972462;28;20491;-70
2022/10/19 05:08:11;;;;;;;13.27;8.23;;;;;;;;;;4970316;28;20461;-70
2022/10/19 05:10:37;;;;;;;19.53;8.20;;;;;;;;;;4970395;28;20493;-69
2022/10/19 05:13:03;;;;;;;10.10;8.50;;;;;;;;;;4971851;28;20437;-69
2022/10/19 05:15:30;;;;;;;12.73;9.10;;;;;;;;;;4971733;28;20434;-69
2022/10/19 05:17:56;;;;;;;10.40;8.77;;;;;;;;;;4971209;28;20444;-67
2022/10/19 05:20:22;;;;;;;12.57;7.73;;;;;;;;;;4972097;28;20509;-68
2022/10/19 05:22:48;;;;;;;9.53;8.63;;;;;;;;;;4972360;28;20826;-68
2022/10/19 05:25:14;;;;;;;9.70;8.70;;;;;;;;;;4970606;28;20433;-69
2022/10/19 05:27:40;;;;;;;9.07;8.07;;;;;;;;;;4972087;28;20445;-67
2022/10/19 05:30:07;;;;;;;17.63;8.33;;;;;;;;;;4971183;28;20457;-68
2022/10/19 05:32:33;;;;;;;9.10;8.20;;;;;;;;;;4971344;28;20446;-68
2022/10/19 05:34:59;;;;;;;15.27;7.20;;;;;;;;;;4972388;28;20497;-67
2022/10/19 05:37:25;;;;;;;8.13;7.33;;;;;;;;;;4971520;28;20446;-68
2022/10/19 05:39:51;;;;;;;17.10;8.13;;;;;;;;;;4971422;28;20473;-68
2022/10/19 05:42:17;;;;;;;8.47;7.60;;;;;;;;;;4970939;28;20472;-68
2022/10/19 05:44:43;;;;;;;8.53;7.30;;;;;;;;;;4971738;28;20470;-69
2022/10/19 05:47:09;;;;;;;8.87;8.10;;;;;;;;;;4971262;28;20485;-69
2022/10/19 05:49:35;;;;;;;7.43;6.97;;;;;;;;;;4970770;28;20438;-68
2022/10/19 05:52:01;;;;;;;9.13;7.80;;;;;;;;;;4971951;28;21017;-69
2022/10/19 05:54:27;;;;;;;16.80;9.90;;;;;;;;;;4970986;28;20446;-71
2022/10/19 05:56:53;;;;;;;8.87;7.97;;;;;;;;;;4970206;28;20485;-68
2022/10/19 05:59:21;;;;;;;9.60;8.67;;;;;;;;;;4970545;28;20438;-68
2022/10/19 06:01:47;;;;;;;10.17;7.77;;;;;;;;;;4970065;28;20478;-68
2022/10/19 06:04:14;;;;;;;8.37;7.77;;;;;;;;;;4967799;28;20560;-69
2022/10/19 06:06:40;;;;;;;8.83;7.93;;;;;;;;;;4968944;28;20430;-69
2022/10/19 06:09:07;;;;;;;7.63;6.90;;;;;;;;;;4969370;28;20417;-68
2022/10/19 06:11:34;;;;;;;12.43;8.40;;;;;;;;;;4970135;28;20450;-71
2022/10/19 06:14:01;;;;;;;8.10;7.00;;;;;;;;;;4972097;28;20521;-70
2022/10/19 06:16:28;;;;;;;8.50;6.97;;;;;;;;;;4970978;28;20458;-71
2022/10/19 06:18:54;;;;;;;6.50;6.03;;;;;;;;;;4971006;28;20581;-69
2022/10/19 06:21:22;;;;;;;7.10;6.27;;;;;;;;;;4971610;28;20485;-69
2022/10/19 06:23:54;;;;;;;7.23;6.73;;;;;;;;;;4970931;28;20431;-69
2022/10/19 06:26:20;;;;;;;8.00;6.77;;;;;;;;;;4971163;28;20454;-70
2022/10/19 06:28:47;;;;;;;7.20;6.63;;;;;;;;;;4971578;28;20911;-69
2022/10/19 06:31:13;;;;;;;7.10;6.50;;;;;;;;;;4970991;28;20989;-71
2022/10/19 06:33:40;;;;;;;5.73;5.30;;;;;;;;;;4971000;28;20433;-71
2022/10/19 06:36:06;;;;;;;6.20;5.80;;;;;;;;;;4970260;28;20512;-70
2022/10/19 06:38:32;;;;;;;6.60;6.20;;;;;;;;;;4971759;28;20501;-70
2022/10/19 06:40:58;;;;;;;6.10;5.70;;;;;;;;;;4969454;28;20576;-70
2022/10/19 06:43:24;;;;;;;5.90;5.57;;;;;;;;;;4967563;28;20465;-68
2022/10/19 06:45:50;;;;;;;5.80;5.40;;;;;;;;;;4969659;28;20430;-68
2022/10/19 06:48:16;;;;;;;5.60;5.30;;;;;;;;;;4969284;28;20532;-69
2022/10/19 06:50:42;;;;;;;5.23;5.00;;;;;;;;;;4967659;28;20466;-69
2022/10/19 06:53:08;;;;;;;5.70;5.40;;;;;;;;;;4969059;28;20441;-68
2022/10/19 06:55:34;;;;;;;4.63;4.43;;;;;;;;;;4967091;28;20860;-69
2022/10/19 06:58:00;;;;;;;4.43;4.23;;;;;;;;;;4969860;28;20443;-69
2022/10/19 07:00:27;;;;;;;6.20;5.57;;;;;;;;;;4970512;28;20480;-69
2022/10/19 07:02:53;;;;;;;4.90;4.70;;;;;;;;;;4971096;28;20562;-71
2022/10/19 07:05:19;;;;;;;10.40;5.30;;;;;;;;;;4970452;28;20438;-70
2022/10/19 07:07:45;;;;;;;4.93;4.73;;;;;;;;;;4971394;28;20445;-70
2022/10/19 07:10:11;;;;;;;5.77;5.30;;;;;;;;;;4970392;28;20848;-71
2022/10/19 07:12:37;;;;;;;4.17;3.97;;;;;;;;;;4970912;28;20426;-70
2022/10/19 07:15:03;;;;;;;4.93;4.63;;;;;;;;;;4971509;28;20422;-72
2022/10/19 07:17:30;;;;;;;4.63;4.53;;;;;;;;;;4970883;28;20531;-69
2022/10/19 07:19:56;;;;;;;4.67;4.40;;;;;;;;;;4969825;28;20546;-68
2022/10/19 07:22:22;;;;;;;4.80;4.57;;;;;;;;;;4969741;28;20449;-70
2022/10/19 07:24:48;;;;;;;4.80;4.60;;;;;;;;;;4971179;28;20793;-68
2022/10/19 07:27:14;;;;;;;4.73;4.53;;;;;;;;;;4970496;28;20449;-69
2022/10/19 07:29:40;;;;;;;5.20;5.00;;;;;;;;;;4970798;28;20881;-69
2022/10/19 07:32:06;;;;;;;5.60;4.77;;;;;;;;;;4968163;28;20997;-69
2022/10/19 07:34:32;;;;;;;4.50;4.10;;;;;;;;;;4970996;28;20441;-71
2022/10/19 07:36:58;;;;;;;4.40;4.20;;;;;;;;;;4969585;28;20437;-69
2022/10/19 07:39:24;;;;;;;5.20;4.90;;;;;;;;;;4969307;28;20437;-69
2022/10/19 07:41:50;;;;;;;5.77;5.27;;;;;;;;;;4970484;28;20477;-68
2022/10/19 07:44:16;;;;;;;5.70;5.30;;;;;;;;;;4970896;28;20418;-69
2022/10/19 07:46:42;;;;;;;6.50;5.27;;;;;;;;;;4969713;28;20472;-69
2022/10/19 07:49:10;;;;;;;5.43;5.10;;;;;;;;;;4970009;28;20434;-68
2022/10/19 07:51:37;;;;;;;7.10;6.40;;;;;;;;;;4970704;28;20445;-69
2022/10/19 07:54:03;;;;;;;5.40;5.10;;;;;;;;;;4970049;28;20465;-68
2022/10/19 07:56:29;;;;;;;5.77;5.40;;;;;;;;;;4973297;28;20440;-70
2022/10/19 07:58:57;;;;;;;6.57;5.17;;;;;;;;;;4972877;28;20425;-70
2022/10/19 08:01:24;;;;;;;5.77;5.27;;;;;;;;;;4973153;28;20481;-69
2022/10/19 08:03:51;;;;;;;5.50;5.20;;;;;;;;;;4974612;28;20425;-71
2022/10/19 08:06:20;;;;;;;7.17;6.23;;;;;;;;;;4974434;28;20426;-69
2022/10/19 08:08:47;;;;;;;5.90;5.50;;;;;;;;;;4973135;28;20429;-71
2022/10/19 08:11:33;;;;;;;6.33;5.93;;;;;;;;;;4972735;28;20575;-68
2022/10/19 08:14:01;;;;;;;5.90;5.53;;;;;;;;;;4973964;28;20452;-70
2022/10/19 08:16:31;;;;;;;6.27;5.77;;;;;;;;;;4973293;28;20496;-70
2022/10/19 08:18:59;;;;;;;14.77;5.20;;;;;;;;;;4973634;28;20455;-69
2022/10/19 08:21:26;;;;;;;5.90;5.60;;;;;;;;;;4973294;28;20514;-70
2022/10/19 08:23:52;;;;;;;4.63;4.40;;;;;;;;;;4973166;28;20946;-69
2022/10/19 08:26:19;;;;;;;13.73;7.73;;;;;;;;;;4973398;28;20516;-69
2022/10/19 08:28:45;;;;;;;5.83;5.43;;;;;;;;;;4973924;28;20429;-70
2022/10/19 08:31:15;;;;;;;6.20;5.10;;;;;;;;;;4973240;28;20978;-71
2022/10/19 08:33:41;;;;;;;5.60;5.30;;;;;;;;;;4973180;28;20441;-71
2022/10/19 08:36:08;;;;;;;6.60;4.60;;;;;;;;;;4973054;28;20457;-70
2022/10/19 08:38:34;;;;;;;7.00;5.90;;;;;;;;;;4972581;28;20438;-69
2022/10/19 08:41:06;;;;;;;5.50;5.20;;;;;;;;;;4973826;28;20499;-69
2022/10/19 08:43:38;;;;;;;6.53;5.10;;;;;;;;;;4973063;28;20441;-68
2022/10/19 08:46:15;;;;;;;5.37;4.97;;;;;;;;;;4972430;28;20425;-72
2022/10/19 08:48:42;;;;;;;5.30;4.80;;;;;;;;;;4973443;28;20445;-68
2022/10/19 08:51:11;;;;;;;5.80;5.30;;;;;;;;;;4971884;28;20476;-70
2022/10/19 08:53:42;;;;;;;4.90;4.60;;;;;;;;;;4973117;28;20939;-69
2022/10/19 08:56:18;;;;;;;6.47;5.97;;;;;;;;;;4971594;28;20437;-70
2022/10/19 08:59:07;;;;;;;5.60;5.33;;;;;;;;;;4972993;28;20443;-68
2022/10/19 09:01:42;;;;;;;5.67;5.33;;;;;;;;;;4963902;28;20504;-69
2022/10/19 09:04:28;;;;;;;6.60;6.10;;;;;;;;;;4971611;28;20433;-68
2022/10/19 09:07:03;;;;;;;6.63;6.20;;;;;;;;;;4971483;28;20541;-69
2022/10/19 09:09:31;;;;;;;11.90;6.83;;;;;;;;;;4972873;28;20461;-68
2022/10/19 09:12:02;;;;;;;6.63;5.47;;;;;;;;;;4972139;28;20442;-70
2022/10/19 09:14:35;;;;;;;6.73;6.07;;;;;;;;;;4973048;28;20438;-69
2022/10/19 09:17:03;;;;;;;12.03;6.37;;;;;;;;;;4972691;28;20434;-70
2022/10/19 09:19:30;;;;;;;17.13;5.27;;;;;;;;;;4972666;28;20493;-71
2022/10/19 09:22:05;;;;;;;5.40;5.10;;;;;;;;;;4972600;28;20505;-69
2022/10/19 09:24:48;;;;;;;5.27;4.97;;;;;;;;;;4971568;28;20516;-70
2022/10/19 09:27:25;;;;;;;6.10;4.73;;;;;;;;;;4971450;28;20449;-69
2022/10/19 09:29:56;;;;;;;4.90;4.70;;;;;;;;;;4972589;28;20440;-69
2022/10/19 09:32:25;;;;;;;9.93;5.10;;;;;;;;;;4971339;28;20841;-68
2022/10/19 09:34:53;;;;;;;5.67;5.17;;;;;;;;;;4972257;28;20430;-69
2022/10/19 09:37:20;;;;;;;11.57;5.93;;;;;;;;;;4971364;28;20450;-68
2022/10/19 09:39:46;;;;;;;6.80;6.30;;;;;;;;;;4971394;28;20434;-70
2022/10/19 09:42:20;;;;;;;6.67;6.17;;;;;;;;;;4972404;28;20572;-71
2022/10/19 09:44:47;;;;;;;6.73;6.23;;;;;;;;;;4972771;28;20421;-69
2022/10/19 09:47:28;;;;;;;8.33;6.13;;;;;;;;;;4969713;28;20442;-72
2022/10/19 09:50:05;;;;;;;5.37;4.97;;;;;;;;;;4971962;28;20422;-68
2022/10/19 09:52:31;;;;;;;6.67;5.90;;;;;;;;;;4970241;28;20437;-71
2022/10/19 09:55:01;;;;;;;6.00;5.53;;;;;;;;;;4970929;28;20440;-68
2022/10/19 09:57:27;;;;;;;7.63;6.97;;;;;;;;;;4970595;28;20438;-69
2022/10/19 09:59:54;;;;;;;6.03;5.43;;;;;;;;;;4972403;28;20429;-68
2022/10/19 10:02:27;;;;;;;6.03;5.57;;;;;;;;;;4970921;28;20532;-69
2022/10/19 10:05:05;;;;;;;6.13;5.60;;;;;;;;;;4971667;28;20430;-70
2022/10/19 10:07:36;;;;;;;6.77;6.17;;;;;;;;;;4971756;28;20442;-69
2022/10/19 10:10:09;;;;;;;6.30;5.70;;;;;;;;;;4969953;28;20552;-71
2022/10/19 10:12:35;;;;;;;6.60;6.00;;;;;;;;;;4971966;28;20441;-68
2022/10/19 10:15:03;;;;;;;8.50;7.70;;;;;;;;;;4973060;28;20441;-69
2022/10/19 10:17:30;;;;;;;8.10;6.60;;;;;;;;;;4970007;28;20441;-70
2022/10/19 10:19:59;;;;;;;6.73;6.10;;;;;;;;;;4970957;28;20438;-68
2022/10/19 10:22:26;;;;;;;7.17;6.47;;;;;;;;;;4970640;28;20434;-71
2022/10/19 10:24:54;;;;;;;7.40;6.80;;;;;;;;;;4970894;28;20442;-69
2022/10/19 10:27:34;;;;;;;7.73;7.03;;;;;;;;;;4970689;28;20433;-69
2022/10/19 10:30:04;;;;;;;7.17;6.53;;;;;;;;;;4970610;28;20430;-68
2022/10/19 10:32:30;;;;;;;8.03;7.23;;;;;;;;;;4970752;28;20442;-68
2022/10/19 10:35:02;;;;;;;10.47;6.50;;;;;;;;;;4970739;28;20449;-68
2022/10/19 10:37:41;;;;;;;8.57;7.80;;;;;;;;;;4968895;28;20773;-71
2022/10/19 10:40:18;;;;;;;9.67;7.80;;;;;;;;;;4969828;28;20430;-70
2022/10/19 10:42:45;;;;;;;8.27;7.47;;;;;;;;;;4971298;28;20441;-71
2022/10/19 10:45:20;;;;;;;8.67;7.77;;;;;;;;;;4968265;28;20909;-69
2022/10/19 10:47:47;;;;;;;6.47;6.03;;;;;;;;;;4969111;28;20481;-69
2022/10/19 10:50:21;;;;;;;8.17;7.17;;;;;;;;;;4970830;28;20430;-70
2022/10/19 10:53:01;;;;;;;8.33;7.40;;;;;;;;;;4960409;28;20475;-69
2022/10/19 10:55:28;;;;;;;8.47;7.83;;;;;;;;;;4969109;28;20443;-70
2022/10/19 10:58:00;;;;;;;11.73;8.87;;;;;;;;;;4969718;28;20465;-71
2022/10/19 11:00:26;;;;;;;10.47;8.37;;;;;;;;;;4970645;28;20509;-71
2022/10/19 11:03:07;;;;;;;8.73;8.00;;;;;;;;;;4970086;28;20445;-70
2022/10/19 11:05:45;;;;;;;10.53;8.93;;;;;;;;;;4970493;28;20465;-68
2022/10/19 11:08:11;;;;;;;11.40;9.00;;;;;;;;;;4971347;28;20457;-69
2022/10/19 11:10:56;;;;;;;10.30;9.50;;;;;;;;;;4967174;28;21034;-70
2022/10/19 11:13:40;;;;;;;18.13;9.70;;;;;;;;;;4970405;28;22002;-69
2022/10/19 11:16:14;;;;;;;10.90;9.53;;;;;;;;;;4969375;28;20520;-69
2022/10/19 11:18:49;;;;;;;11.33;10.00;;;;;;;;;;4969392;28;20516;-69
2022/10/19 11:21:19;;;;;;;11.17;8.87;;;;;;;;;;4970388;28;21048;-68
2022/10/19 11:23:53;;;;;;;12.43;10.00;;;;;;;;;;4970685;28;20430;-68
2022/10/19 11:26:41;;;;;;;7.67;7.07;;;;;;;;;;4967658;28;20437;-68
2022/10/19 11:29:06;;;;;;;14.87;8.70;;;;;;;;;;4968728;28;20438;-68
2022/10/19 11:31:32;;;;;;;11.37;10.17;;;;;;;;;;4968313;28;20448;-67
2022/10/19 11:34:03;;;;;;;10.73;9.73;;;;;;;;;;4969818;28;20486;-69
2022/10/19 11:36:50;;;;;;;12.07;9.40;;;;;;;;;;4970165;28;20430;-69
2022/10/19 11:39:29;;;;;;;10.87;9.77;;;;;;;;;;4940184;28;20449;-68
2022/10/19 11:41:55;;;;;;;10.10;8.90;;;;;;;;;;4969989;28;20877;-69
2022/10/19 11:44:42;;;;;;;9.23;8.43;;;;;;;;;;4969460;28;20520;-69
2022/10/19 11:47:21;;;;;;;9.53;8.70;;;;;;;;;;4966891;28;20446;-70
2022/10/19 11:49:59;;;;;;;10.70;9.00;;;;;;;;;;4968306;28;20456;-70
2022/10/19 11:52:25;;;;;;;9.77;8.77;;;;;;;;;;4968578;28;20926;-68
2022/10/19 11:54:57;;;;;;;9.77;7.47;;;;;;;;;;4970758;28;20426;-69
2022/10/19 11:57:25;;;;;;;8.47;7.77;;;;;;;;;;4970167;28;20460;-68
2022/10/19 11:59:54;;;;;;;8.53;7.67;;;;;;;;;;4968602;28;21440;-69
2022/10/19 12:02:35;;;;;;;10.43;8.77;;;;;;;;;;4968733;28;20481;-68
2022/10/19 12:05:08;;;;;;;9.67;8.80;;;;;;;;;;4966102;28;20430;-71
2022/10/19 12:07:49;;;;;;;8.67;6.87;;;;;;;;;;4965480;28;20465;-69
2022/10/19 12:10:31;;;;;;;21.13;9.70;;;;;;;;;;4968534;28;20481;-71
2022/10/19 12:13:00;;;;;;;8.17;7.57;;;;;;;;;;4970399;28;20436;-69
2022/10/19 12:15:32;;;;;;;9.07;8.37;;;;;;;;;;4969663;28;20441;-70
2022/10/19 12:18:08;;;;;;;9.33;7.70;;;;;;;;;;4969163;28;20434;-67
2022/10/19 12:20:39;;;;;;;15.83;8.80;;;;;;;;;;4968440;28;20990;-70
2022/10/19 12:23:34;;;;;;;9.20;8.27;;;;;;;;;;4970554;28;20442;-69
2022/10/19 12:26:03;;;;;;;8.30;7.67;;;;;;;;;;4955987;28;20442;-69
2022/10/19 12:28:33;;;;;;;9.23;7.30;;;;;;;;;;4967238;28;21717;-70
2022/10/19 12:31:01;;;;;;;7.03;6.53;;;;;;;;;;4970098;28;20436;-69
2022/10/19 12:33:29;;;;;;;12.87;6.70;;;;;;;;;;4969692;28;20504;-69
2022/10/19 12:35:58;;;;;;;14.70;7.93;;;;;;;;;;4968594;28;20437;-69
2022/10/19 12:38:43;;;;;;;8.63;7.60;;;;;;;;;;4970989;28;20446;-69
2022/10/19 12:41:13;;;;;;;8.57;7.87;;;;;;;;;;4970864;28;20478;-69
2022/10/19 12:43:48;;;;;;;9.03;8.13;;;;;;;;;;4972260;28;20792;-69
2022/10/19 12:46:33;;;;;;;7.70;6.47;;;;;;;;;;4973529;28;20930;-69
2022/10/19 12:49:18;;;;;;;7.03;6.37;;;;;;;;;;4972698;28;20438;-68
2022/10/19 12:51:45;;;;;;;8.50;6.77;;;;;;;;;;4973468;28;20520;-68
2022/10/19 12:54:12;;;;;;;7.57;6.97;;;;;;;;;;4971918;28;20493;-71
2022/10/19 12:56:49;;;;;;;8.73;7.83;;;;;;;;;;4972250;28;20448;-70
2022/10/19 12:59:23;;;;;;;8.27;7.67;;;;;;;;;;4971167;28;20434;-69
2022/10/19 13:01:49;;;;;;;7.80;7.20;;;;;;;;;;4968217;28;20488;-70
2022/10/19 13:04:36;;;;;;;9.70;8.60;;;;;;;;;;4972110;28;20797;-70
2022/10/19 13:07:07;;;;;;;9.97;9.20;;;;;;;;;;4972843;28;20460;-68
2022/10/19 13:09:37;;;;;;;10.10;8.70;;;;;;;;;;4969400;28;20434;-69
2022/10/19 13:12:15;;;;;;;15.80;10.70;;;;;;;;;;4972155;28;20449;-68
2022/10/19 13:14:46;;;;;;;10.77;7.40;;;;;;;;;;4973712;28;20429;-69
2022/10/19 13:17:31;;;;;;;8.27;7.57;;;;;;;;;;4972076;28;20449;-68
2022/10/19 13:20:15;;;;;;;7.90;7.20;;;;;;;;;;4972166;28;20426;-68
2022/10/19 13:22:43;;;;;;;8.47;7.63;;;;;;;;;;4973344;28;20438;-67
2022/10/19 13:25:16;;;;;;;14.10;7.90;;;;;;;;;;4972052;28;20433;-67
2022/10/19 13:27:42;;;;;;;11.77;8.60;;;;;;;;;;4971817;28;20442;-67
2022/10/19 13:30:27;;;;;;;9.60;7.17;;;;;;;;;;4970037;28;20442;-67
2022/10/19 13:32:53;;;;;;;11.50;7.87;;;;;;;;;;4972730;28;20878;-68
2022/10/19 13:35:22;;;;;;;13.00;8.47;;;;;;;;;;4972651;28;20448;-67
2022/10/19 13:38:06;;;;;;;9.63;8.50;;;;;;;;;;4972958;28;20429;-67
2022/10/19 13:40:33;;;;;;;9.13;8.10;;;;;;;;;;4970148;28;20474;-68
2022/10/19 13:42:59;;;;;;;11.97;8.93;;;;;;;;;;4971792;28;20454;-68
2022/10/19 13:45:25;;;;;;;9.13;8.23;;;;;;;;;;4971395;28;20441;-68
2022/10/19 13:47:54;;;;;;;8.83;7.77;;;;;;;;;;4971419;28;20438;-68
2022/10/19 13:50:20;;;;;;;12.53;8.10;;;;;;;;;;4971914;28;20768;-68
2022/10/19 13:53:07;;;;;;;10.70;9.07;;;;;;;;;;4970988;28;21005;-68
2022/10/19 13:55:42;;;;;;;13.93;10.00;;;;;;;;;;4970690;28;20213;-68
2022/10/19 13:58:14;;;;;;;19.40;11.03;;;;;;;;;;4971882;28;20444;-67
2022/10/19 14:00:53;;;;;;;12.97;11.67;;;;;;;;;;4970905;28;20508;-68
2022/10/19 14:03:22;;;;;;;11.77;10.47;;;;;;;;;;4972500;28;20487;-68
2022/10/19 14:05:51;;;;;;;11.83;9.40;;;;;;;;;;4971590;28;20430;-68
2022/10/19 14:08:23;;;;;;;16.97;11.27;;;;;;;;;;4970504;28;20442;-68
2022/10/19 14:10:58;;;;;;;19.00;11.07;;;;;;;;;;4969057;28;20568;-68
2022/10/19 14:13:24;;;;;;;11.80;9.70;;;;;;;;;;4970914;28;20445;-68
2022/10/19 14:15:51;;;;;;;10.80;9.70;;;;;;;;;;4970716;28;20444;-68
2022/10/19 14:18:28;;;;;;;9.53;8.60;;;;;;;;;;4972109;28;20441;-68
2022/10/19 14:20:57;;;;;;;10.77;9.57;;;;;;;;;;4971449;28;20571;-67
2022/10/19 14:23:24;;;;;;;12.83;9.37;;;;;;;;;;4969235;28;20445;-68
2022/10/19 14:25:51;;;;;;;13.00;9.60;;;;;;;;;;4970539;28;20911;-68
2022/10/19 14:28:17;;;;;;;20.77;10.37;;;;;;;;;;4971017;28;20433;-68
2022/10/19 14:30:43;;;;;;;12.00;10.80;;;;;;;;;;4970158;28;20434;-68
2022/10/19 14:33:13;;;;;;;17.17;12.00;;;;;;;;;;4971528;28;20930;-67
2022/10/19 14:35:39;;;;;;;11.50;10.30;;;;;;;;;;4969486;28;20442;-67
2022/10/19 14:38:07;;;;;;;11.53;9.70;;;;;;;;;;4971729;28;20537;-68
2022/10/19 14:40:34;;;;;;;17.87;10.87;;;;;;;;;;4970698;28;21041;-67
2022/10/19 14:43:01;;;;;;;12.27;11.10;;;;;;;;;;4971497;28;20442;-67
2022/10/19 14:45:28;;;;;;;12.27;11.03;;;;;;;;;;4970230;28;20496;-68
2022/10/19 14:48:04;;;;;;;26.53;11.60;;;;;;;;;;4968899;28;20541;-68